sensor_id;sensor_type;location;lat;lon;timestamp;P1;durP1;ratioP1;P2;durP2;ratioP2
70761;SDS011;58360;0.000;0.000;2023-04-25T00:00:52;18.30;;;4.45;;
70761;SDS011;58360;0.000;0.000;2023-04-25T00:03:18;17.25;;;4.10;;
70761;SDS011;58360;0.000;0.000;2023-04-25T00:05:44;18.80;;;4.22;;
70761;SDS011;58360;0.000;0.000;2023-04-25T00:08:10;21.17;;;5.20;;
70761;SDS011;58360;0.000;0.000;2023-04-25T00:10:36;17.63;;;4.28;;
70761;SDS011;58360;0.000;0.000;2023-04-25T00:13:01;13.50;;;4.28;;
70761;SDS011;58360;0.000;0.000;2023-04-25T00:15:27;15.60;;;4.32;;
70761;SDS011;58360;0.000;0.000;2023-04-25T00:17:55;18.33;;;4.15;;
70761;SDS011;58360;0.000;0.000;2023-04-25T00:20:21;19.55;;;4.88;;
70761;SDS011;58360;0.000;0.000;2023-04-25T00:22:48;17.98;;;4.85;;
70761;SDS011;58360;0.000;0.000;2023-04-25T00:25:14;16.42;;;4.00;;
70761;SDS011;58360;0.000;0.000;2023-04-25T00:27:40;23.25;;;4.47;;
70761;SDS011;58360;0.000;0.000;2023-04-25T00:30:07;16.05;;;4.97;;
70761;SDS011;58360;0.000;0.000;2023-04-25T00:32:33;19.27;;;4.53;;
70761;SDS011;58360;0.000;0.000;2023-04-25T00:34:58;18.35;;;4.38;;
70761;SDS011;58360;0.000;0.000;2023-04-25T00:37:24;13.55;;;3.55;;
70761;SDS011;58360;0.000;0.000;2023-04-25T00:39:50;20.60;;;4.97;;
70761;SDS011;58360;0.000;0.000;2023-04-25T00:42:18;19.38;;;4.63;;
70761;SDS011;58360;0.000;0.000;2023-04-25T00:44:44;15.10;;;4.13;;
70761;SDS011;58360;0.000;0.000;2023-04-25T00:47:10;15.32;;;4.18;;
70761;SDS011;58360;0.000;0.000;2023-04-25T00:49:36;15.85;;;3.90;;
70761;SDS011;58360;0.000;0.000;2023-04-25T00:52:02;20.25;;;4.47;;
70761;SDS011;58360;0.000;0.000;2023-04-25T00:54:28;19.83;;;3.88;;
70761;SDS011;58360;0.000;0.000;2023-04-25T00:56:55;17.45;;;3.97;;
70761;SDS011;58360;0.000;0.000;2023-04-25T00:59:20;23.25;;;4.60;;
70761;SDS011;58360;0.000;0.000;2023-04-25T01:01:46;20.08;;;4.45;;
70761;SDS011;58360;0.000;0.000;2023-04-25T01:04:12;14.48;;;3.88;;
70761;SDS011;58360;0.000;0.000;2023-04-25T01:06:38;16.13;;;4.57;;
70761;SDS011;58360;0.000;0.000;2023-04-25T01:09:04;20.80;;;4.60;;
70761;SDS011;58360;0.000;0.000;2023-04-25T01:11:30;16.45;;;3.78;;
70761;SDS011;58360;0.000;0.000;2023-04-25T01:13:56;12.60;;;3.63;;
70761;SDS011;58360;0.000;0.000;2023-04-25T01:16:23;12.10;;;3.75;;
70761;SDS011;58360;0.000;0.000;2023-04-25T01:18:49;15.95;;;4.70;;
70761;SDS011;58360;0.000;0.000;2023-04-25T01:21:16;14.52;;;3.97;;
70761;SDS011;58360;0.000;0.000;2023-04-25T01:23:42;18.65;;;4.45;;
70761;SDS011;58360;0.000;0.000;2023-04-25T01:26:09;17.92;;;3.97;;
70761;SDS011;58360;0.000;0.000;2023-04-25T01:28:35;16.20;;;4.18;;
70761;SDS011;58360;0.000;0.000;2023-04-25T01:31:02;17.38;;;5.10;;
70761;SDS011;58360;0.000;0.000;2023-04-25T01:33:28;14.40;;;3.83;;
70761;SDS011;58360;0.000;0.000;2023-04-25T01:35:54;16.83;;;3.90;;
70761;SDS011;58360;0.000;0.000;2023-04-25T01:38:20;22.80;;;4.68;;
70761;SDS011;58360;0.000;0.000;2023-04-25T01:40:46;14.63;;;4.97;;
70761;SDS011;58360;0.000;0.000;2023-04-25T01:43:14;17.10;;;4.03;;
70761;SDS011;58360;0.000;0.000;2023-04-25T01:45:43;13.88;;;4.00;;
70761;SDS011;58360;0.000;0.000;2023-04-25T01:48:09;19.27;;;3.83;;
70761;SDS011;58360;0.000;0.000;2023-04-25T01:50:39;14.75;;;4.10;;
70761;SDS011;58360;0.000;0.000;2023-04-25T01:53:05;17.92;;;4.32;;
70761;SDS011;58360;0.000;0.000;2023-04-25T01:55:30;16.45;;;4.60;;
70761;SDS011;58360;0.000;0.000;2023-04-25T01:57:56;15.57;;;3.97;;
70761;SDS011;58360;0.000;0.000;2023-04-25T02:00:22;18.60;;;4.80;;
70761;SDS011;58360;0.000;0.000;2023-04-25T02:02:48;15.82;;;3.67;;
70761;SDS011;58360;0.000;0.000;2023-04-25T02:05:15;20.02;;;4.50;;
70761;SDS011;58360;0.000;0.000;2023-04-25T02:07:41;20.85;;;3.83;;
70761;SDS011;58360;0.000;0.000;2023-04-25T02:10:07;21.50;;;4.70;;
70761;SDS011;58360;0.000;0.000;2023-04-25T02:12:34;19.45;;;4.45;;
70761;SDS011;58360;0.000;0.000;2023-04-25T02:15:01;18.33;;;4.38;;
70761;SDS011;58360;0.000;0.000;2023-04-25T02:17:26;16.02;;;4.50;;
70761;SDS011;58360;0.000;0.000;2023-04-25T02:19:52;19.00;;;4.03;;
70761;SDS011;58360;0.000;0.000;2023-04-25T02:22:18;15.02;;;4.07;;
70761;SDS011;58360;0.000;0.000;2023-04-25T02:24:43;16.42;;;4.10;;
70761;SDS011;58360;0.000;0.000;2023-04-25T02:27:09;16.25;;;4.68;;
70761;SDS011;58360;0.000;0.000;2023-04-25T02:29:35;15.82;;;3.95;;
70761;SDS011;58360;0.000;0.000;2023-04-25T02:32:00;20.95;;;4.10;;
70761;SDS011;58360;0.000;0.000;2023-04-25T02:34:26;19.02;;;4.45;;
70761;SDS011;58360;0.000;0.000;2023-04-25T02:36:52;20.05;;;4.00;;
70761;SDS011;58360;0.000;0.000;2023-04-25T02:39:17;18.67;;;4.68;;
70761;SDS011;58360;0.000;0.000;2023-04-25T02:41:43;27.67;;;5.63;;
70761;SDS011;58360;0.000;0.000;2023-04-25T02:44:09;15.95;;;4.93;;
70761;SDS011;58360;0.000;0.000;2023-04-25T02:46:35;22.10;;;4.75;;
70761;SDS011;58360;0.000;0.000;2023-04-25T02:49:01;16.88;;;4.40;;
70761;SDS011;58360;0.000;0.000;2023-04-25T02:51:26;23.40;;;5.07;;
70761;SDS011;58360;0.000;0.000;2023-04-25T02:53:52;18.20;;;4.50;;
70761;SDS011;58360;0.000;0.000;2023-04-25T02:56:17;17.88;;;5.68;;
70761;SDS011;58360;0.000;0.000;2023-04-25T02:58:43;21.73;;;5.03;;
70761;SDS011;58360;0.000;0.000;2023-04-25T03:01:10;18.77;;;4.72;;
70761;SDS011;58360;0.000;0.000;2023-04-25T03:03:35;19.60;;;4.25;;
70761;SDS011;58360;0.000;0.000;2023-04-25T03:06:01;19.08;;;4.53;;
70761;SDS011;58360;0.000;0.000;2023-04-25T03:08:27;17.52;;;4.53;;
70761;SDS011;58360;0.000;0.000;2023-04-25T03:10:57;21.80;;;4.70;;
70761;SDS011;58360;0.000;0.000;2023-04-25T03:13:23;17.02;;;4.40;;
70761;SDS011;58360;0.000;0.000;2023-04-25T03:15:49;15.05;;;4.15;;
70761;SDS011;58360;0.000;0.000;2023-04-25T03:18:15;22.02;;;5.32;;
70761;SDS011;58360;0.000;0.000;2023-04-25T03:20:40;14.77;;;3.83;;
70761;SDS011;58360;0.000;0.000;2023-04-25T03:23:06;15.75;;;3.92;;
70761;SDS011;58360;0.000;0.000;2023-04-25T03:25:32;16.60;;;4.88;;
70761;SDS011;58360;0.000;0.000;2023-04-25T03:27:58;16.98;;;4.15;;
70761;SDS011;58360;0.000;0.000;2023-04-25T03:30:23;19.17;;;4.15;;
70761;SDS011;58360;0.000;0.000;2023-04-25T03:32:49;14.20;;;4.35;;
70761;SDS011;58360;0.000;0.000;2023-04-25T03:35:15;13.68;;;4.43;;
70761;SDS011;58360;0.000;0.000;2023-04-25T03:37:40;15.30;;;4.38;;
70761;SDS011;58360;0.000;0.000;2023-04-25T03:40:10;16.80;;;4.22;;
70761;SDS011;58360;0.000;0.000;2023-04-25T03:42:36;21.25;;;4.70;;
70761;SDS011;58360;0.000;0.000;2023-04-25T03:45:01;21.98;;;5.50;;
70761;SDS011;58360;0.000;0.000;2023-04-25T03:47:27;15.73;;;4.60;;
70761;SDS011;58360;0.000;0.000;2023-04-25T03:49:53;18.35;;;4.50;;
70761;SDS011;58360;0.000;0.000;2023-04-25T03:52:19;16.88;;;4.20;;
70761;SDS011;58360;0.000;0.000;2023-04-25T03:54:44;9.48;;;3.72;;
70761;SDS011;58360;0.000;0.000;2023-04-25T03:57:10;21.05;;;4.68;;
70761;SDS011;58360;0.000;0.000;2023-04-25T03:59:36;27.63;;;5.70;;
70761;SDS011;58360;0.000;0.000;2023-04-25T04:02:01;14.75;;;4.90;;
70761;SDS011;58360;0.000;0.000;2023-04-25T04:04:27;20.58;;;5.13;;
70761;SDS011;58360;0.000;0.000;2023-04-25T04:06:52;17.50;;;4.35;;
70761;SDS011;58360;0.000;0.000;2023-04-25T04:09:18;23.15;;;5.15;;
70761;SDS011;58360;0.000;0.000;2023-04-25T04:11:45;24.88;;;4.75;;
70761;SDS011;58360;0.000;0.000;2023-04-25T04:14:11;17.77;;;5.13;;
70761;SDS011;58360;0.000;0.000;2023-04-25T04:16:36;22.92;;;4.55;;
70761;SDS011;58360;0.000;0.000;2023-04-25T04:19:02;23.67;;;4.93;;
70761;SDS011;58360;0.000;0.000;2023-04-25T04:21:28;22.17;;;4.85;;
70761;SDS011;58360;0.000;0.000;2023-04-25T04:23:53;20.02;;;5.00;;
70761;SDS011;58360;0.000;0.000;2023-04-25T04:26:20;19.98;;;5.20;;
70761;SDS011;58360;0.000;0.000;2023-04-25T04:28:52;17.55;;;5.07;;
70761;SDS011;58360;0.000;0.000;2023-04-25T04:31:19;18.92;;;4.68;;
70761;SDS011;58360;0.000;0.000;2023-04-25T04:33:48;23.00;;;5.07;;
70761;SDS011;58360;0.000;0.000;2023-04-25T04:36:15;23.40;;;5.78;;
70761;SDS011;58360;0.000;0.000;2023-04-25T04:38:40;18.30;;;4.45;;
70761;SDS011;58360;0.000;0.000;2023-04-25T04:41:07;25.60;;;5.05;;
70761;SDS011;58360;0.000;0.000;2023-04-25T04:43:33;19.13;;;4.90;;
70761;SDS011;58360;0.000;0.000;2023-04-25T04:46:02;23.00;;;5.05;;
70761;SDS011;58360;0.000;0.000;2023-04-25T04:48:29;21.63;;;5.85;;
70761;SDS011;58360;0.000;0.000;2023-04-25T04:50:57;26.77;;;6.53;;
70761;SDS011;58360;0.000;0.000;2023-04-25T04:53:23;17.27;;;4.43;;
70761;SDS011;58360;0.000;0.000;2023-04-25T04:55:49;15.57;;;4.50;;
70761;SDS011;58360;0.000;0.000;2023-04-25T04:58:15;23.05;;;5.57;;
70761;SDS011;58360;0.000;0.000;2023-04-25T05:00:40;32.90;;;6.72;;
70761;SDS011;58360;0.000;0.000;2023-04-25T05:03:06;19.02;;;4.25;;
70761;SDS011;58360;0.000;0.000;2023-04-25T05:05:32;21.65;;;5.72;;
70761;SDS011;58360;0.000;0.000;2023-04-25T05:07:57;17.95;;;5.38;;
70761;SDS011;58360;0.000;0.000;2023-04-25T05:10:23;11.65;;;3.92;;
70761;SDS011;58360;0.000;0.000;2023-04-25T05:12:49;22.35;;;5.53;;
70761;SDS011;58360;0.000;0.000;2023-04-25T05:15:14;22.20;;;4.38;;
70761;SDS011;58360;0.000;0.000;2023-04-25T05:17:40;19.63;;;4.20;;
70761;SDS011;58360;0.000;0.000;2023-04-25T05:20:06;18.27;;;4.50;;
70761;SDS011;58360;0.000;0.000;2023-04-25T05:22:34;18.73;;;4.50;;
70761;SDS011;58360;0.000;0.000;2023-04-25T05:25:00;16.95;;;4.38;;
70761;SDS011;58360;0.000;0.000;2023-04-25T05:27:26;17.58;;;4.50;;
70761;SDS011;58360;0.000;0.000;2023-04-25T05:29:51;17.40;;;4.43;;
70761;SDS011;58360;0.000;0.000;2023-04-25T05:32:17;18.95;;;4.65;;
70761;SDS011;58360;0.000;0.000;2023-04-25T05:34:43;19.95;;;4.60;;
70761;SDS011;58360;0.000;0.000;2023-04-25T05:37:09;15.32;;;3.53;;
70761;SDS011;58360;0.000;0.000;2023-04-25T05:39:35;21.38;;;4.03;;
70761;SDS011;58360;0.000;0.000;2023-04-25T05:42:00;18.83;;;4.40;;
70761;SDS011;58360;0.000;0.000;2023-04-25T05:44:27;14.82;;;3.88;;
70761;SDS011;58360;0.000;0.000;2023-04-25T05:46:52;23.50;;;4.30;;
70761;SDS011;58360;0.000;0.000;2023-04-25T05:49:18;16.58;;;4.30;;
70761;SDS011;58360;0.000;0.000;2023-04-25T05:51:44;17.38;;;4.28;;
70761;SDS011;58360;0.000;0.000;2023-04-25T05:54:09;18.75;;;4.38;;
70761;SDS011;58360;0.000;0.000;2023-04-25T05:56:35;15.27;;;4.30;;
70761;SDS011;58360;0.000;0.000;2023-04-25T05:59:01;16.23;;;3.90;;
70761;SDS011;58360;0.000;0.000;2023-04-25T06:01:27;14.95;;;4.00;;
70761;SDS011;58360;0.000;0.000;2023-04-25T06:03:52;19.85;;;4.53;;
70761;SDS011;58360;0.000;0.000;2023-04-25T06:06:18;16.48;;;3.83;;
70761;SDS011;58360;0.000;0.000;2023-04-25T06:08:44;17.00;;;4.30;;
70761;SDS011;58360;0.000;0.000;2023-04-25T06:11:10;14.43;;;4.22;;
70761;SDS011;58360;0.000;0.000;2023-04-25T06:13:36;16.70;;;4.10;;
70761;SDS011;58360;0.000;0.000;2023-04-25T06:16:01;16.58;;;4.32;;
70761;SDS011;58360;0.000;0.000;2023-04-25T06:18:27;17.15;;;4.30;;
70761;SDS011;58360;0.000;0.000;2023-04-25T06:20:53;20.33;;;4.40;;
70761;SDS011;58360;0.000;0.000;2023-04-25T06:23:18;14.75;;;4.32;;
70761;SDS011;58360;0.000;0.000;2023-04-25T06:25:44;20.42;;;3.85;;
70761;SDS011;58360;0.000;0.000;2023-04-25T06:28:10;12.75;;;4.30;;
70761;SDS011;58360;0.000;0.000;2023-04-25T06:30:35;10.20;;;3.60;;
70761;SDS011;58360;0.000;0.000;2023-04-25T06:33:01;21.40;;;4.18;;
70761;SDS011;58360;0.000;0.000;2023-04-25T06:35:27;19.23;;;3.95;;
70761;SDS011;58360;0.000;0.000;2023-04-25T06:37:52;17.83;;;4.22;;
70761;SDS011;58360;0.000;0.000;2023-04-25T06:40:18;14.75;;;4.03;;
70761;SDS011;58360;0.000;0.000;2023-04-25T06:42:43;17.75;;;3.72;;
70761;SDS011;58360;0.000;0.000;2023-04-25T06:45:09;21.25;;;3.45;;
70761;SDS011;58360;0.000;0.000;2023-04-25T06:47:35;16.63;;;3.75;;
70761;SDS011;58360;0.000;0.000;2023-04-25T06:50:01;16.20;;;3.13;;
70761;SDS011;58360;0.000;0.000;2023-04-25T06:52:27;16.35;;;4.07;;
70761;SDS011;58360;0.000;0.000;2023-04-25T06:54:52;14.40;;;4.20;;
70761;SDS011;58360;0.000;0.000;2023-04-25T06:57:18;12.85;;;2.92;;
70761;SDS011;58360;0.000;0.000;2023-04-25T06:59:43;12.65;;;3.58;;
70761;SDS011;58360;0.000;0.000;2023-04-25T07:02:09;13.80;;;3.58;;
70761;SDS011;58360;0.000;0.000;2023-04-25T07:04:35;13.23;;;3.83;;
70761;SDS011;58360;0.000;0.000;2023-04-25T07:07:01;14.52;;;2.90;;
70761;SDS011;58360;0.000;0.000;2023-04-25T07:09:28;15.00;;;3.20;;
70761;SDS011;58360;0.000;0.000;2023-04-25T07:11:54;14.55;;;3.13;;
70761;SDS011;58360;0.000;0.000;2023-04-25T07:14:21;13.35;;;3.47;;
70761;SDS011;58360;0.000;0.000;2023-04-25T07:16:47;11.40;;;3.08;;
70761;SDS011;58360;0.000;0.000;2023-04-25T07:19:12;12.32;;;2.90;;
70761;SDS011;58360;0.000;0.000;2023-04-25T07:21:38;12.27;;;2.80;;
70761;SDS011;58360;0.000;0.000;2023-04-25T07:24:04;10.50;;;3.10;;
70761;SDS011;58360;0.000;0.000;2023-04-25T07:26:30;14.48;;;3.25;;
70761;SDS011;58360;0.000;0.000;2023-04-25T07:28:56;10.95;;;2.58;;
70761;SDS011;58360;0.000;0.000;2023-04-25T07:31:21;13.90;;;3.35;;
70761;SDS011;58360;0.000;0.000;2023-04-25T07:33:47;9.40;;;2.80;;
70761;SDS011;58360;0.000;0.000;2023-04-25T07:36:13;11.13;;;2.92;;
70761;SDS011;58360;0.000;0.000;2023-04-25T07:38:40;12.45;;;2.60;;
70761;SDS011;58360;0.000;0.000;2023-04-25T07:41:06;10.50;;;2.58;;
70761;SDS011;58360;0.000;0.000;2023-04-25T07:43:31;12.98;;;2.83;;
70761;SDS011;58360;0.000;0.000;2023-04-25T07:45:57;12.27;;;3.00;;
70761;SDS011;58360;0.000;0.000;2023-04-25T07:48:22;8.80;;;2.30;;
70761;SDS011;58360;0.000;0.000;2023-04-25T07:50:48;12.80;;;2.40;;
70761;SDS011;58360;0.000;0.000;2023-04-25T07:53:14;12.13;;;2.50;;
70761;SDS011;58360;0.000;0.000;2023-04-25T07:55:40;11.85;;;2.70;;
70761;SDS011;58360;0.000;0.000;2023-04-25T07:58:10;8.60;;;2.10;;
70761;SDS011;58360;0.000;0.000;2023-04-25T08:00:36;16.75;;;2.90;;
70761;SDS011;58360;0.000;0.000;2023-04-25T08:03:02;9.15;;;2.60;;
70761;SDS011;58360;0.000;0.000;2023-04-25T08:05:28;14.15;;;3.08;;
70761;SDS011;58360;0.000;0.000;2023-04-25T08:07:54;11.95;;;2.42;;
70761;SDS011;58360;0.000;0.000;2023-04-25T08:10:21;10.77;;;2.35;;
70761;SDS011;58360;0.000;0.000;2023-04-25T08:12:48;9.55;;;2.83;;
70761;SDS011;58360;0.000;0.000;2023-04-25T08:15:13;10.68;;;2.50;;
70761;SDS011;58360;0.000;0.000;2023-04-25T08:17:39;11.85;;;3.03;;
70761;SDS011;58360;0.000;0.000;2023-04-25T08:20:05;9.73;;;2.40;;
70761;SDS011;58360;0.000;0.000;2023-04-25T08:22:31;10.07;;;2.38;;
70761;SDS011;58360;0.000;0.000;2023-04-25T08:24:57;11.43;;;2.85;;
70761;SDS011;58360;0.000;0.000;2023-04-25T08:27:23;10.60;;;2.50;;
70761;SDS011;58360;0.000;0.000;2023-04-25T08:29:49;11.10;;;2.63;;
70761;SDS011;58360;0.000;0.000;2023-04-25T08:32:15;11.07;;;2.45;;
70761;SDS011;58360;0.000;0.000;2023-04-25T08:34:41;10.80;;;2.47;;
70761;SDS011;58360;0.000;0.000;2023-04-25T08:37:08;8.82;;;2.40;;
70761;SDS011;58360;0.000;0.000;2023-04-25T08:39:35;10.23;;;2.20;;
70761;SDS011;58360;0.000;0.000;2023-04-25T08:42:02;11.40;;;2.50;;
70761;SDS011;58360;0.000;0.000;2023-04-25T08:44:31;7.15;;;2.47;;
70761;SDS011;58360;0.000;0.000;2023-04-25T08:47:04;9.45;;;2.40;;
70761;SDS011;58360;0.000;0.000;2023-04-25T08:49:33;7.40;;;2.00;;
70761;SDS011;58360;0.000;0.000;2023-04-25T08:52:00;8.63;;;2.28;;
70761;SDS011;58360;0.000;0.000;2023-04-25T08:54:29;9.98;;;2.22;;
70761;SDS011;58360;0.000;0.000;2023-04-25T08:56:57;7.97;;;2.15;;
70761;SDS011;58360;0.000;0.000;2023-04-25T08:59:24;7.75;;;2.47;;
70761;SDS011;58360;0.000;0.000;2023-04-25T09:01:50;8.75;;;2.20;;
70761;SDS011;58360;0.000;0.000;2023-04-25T09:04:17;7.35;;;2.10;;
70761;SDS011;58360;0.000;0.000;2023-04-25T09:06:43;7.85;;;2.20;;
70761;SDS011;58360;0.000;0.000;2023-04-25T09:09:09;7.65;;;1.90;;
70761;SDS011;58360;0.000;0.000;2023-04-25T09:11:36;7.15;;;1.80;;
70761;SDS011;58360;0.000;0.000;2023-04-25T09:14:12;7.75;;;2.13;;
70761;SDS011;58360;0.000;0.000;2023-04-25T09:16:57;8.75;;;1.98;;
70761;SDS011;58360;0.000;0.000;2023-04-25T09:19:31;7.82;;;1.70;;
70761;SDS011;58360;0.000;0.000;2023-04-25T09:22:00;8.15;;;2.58;;
70761;SDS011;58360;0.000;0.000;2023-04-25T09:24:31;6.47;;;1.92;;
70761;SDS011;58360;0.000;0.000;2023-04-25T09:26:59;6.55;;;2.10;;
70761;SDS011;58360;0.000;0.000;2023-04-25T09:29:33;9.50;;;2.20;;
70761;SDS011;58360;0.000;0.000;2023-04-25T09:32:10;5.28;;;1.90;;
70761;SDS011;58360;0.000;0.000;2023-04-25T09:34:44;8.85;;;2.28;;
70761;SDS011;58360;0.000;0.000;2023-04-25T09:37:18;8.23;;;2.20;;
70761;SDS011;58360;0.000;0.000;2023-04-25T09:39:45;7.10;;;1.85;;
70761;SDS011;58360;0.000;0.000;2023-04-25T09:42:13;7.07;;;1.77;;
70761;SDS011;58360;0.000;0.000;2023-04-25T09:44:44;5.20;;;1.33;;
70761;SDS011;58360;0.000;0.000;2023-04-25T09:47:11;4.55;;;1.60;;
70761;SDS011;58360;0.000;0.000;2023-04-25T09:49:39;6.10;;;1.63;;
70761;SDS011;58360;0.000;0.000;2023-04-25T09:52:07;6.65;;;2.13;;
70761;SDS011;58360;0.000;0.000;2023-04-25T09:54:33;5.60;;;1.70;;
70761;SDS011;58360;0.000;0.000;2023-04-25T09:56:59;9.43;;;2.47;;
70761;SDS011;58360;0.000;0.000;2023-04-25T09:59:32;14.75;;;3.20;;
70761;SDS011;58360;0.000;0.000;2023-04-25T10:02:03;6.68;;;1.92;;
70761;SDS011;58360;0.000;0.000;2023-04-25T10:04:29;6.25;;;2.88;;
70761;SDS011;58360;0.000;0.000;2023-04-25T10:06:59;6.13;;;2.20;;
70761;SDS011;58360;0.000;0.000;2023-04-25T10:09:31;10.07;;;1.98;;
70761;SDS011;58360;0.000;0.000;2023-04-25T10:12:00;6.90;;;1.95;;
70761;SDS011;58360;0.000;0.000;2023-04-25T10:14:28;6.03;;;1.88;;
70761;SDS011;58360;0.000;0.000;2023-04-25T10:16:55;6.30;;;1.70;;
70761;SDS011;58360;0.000;0.000;2023-04-25T10:19:23;4.97;;;1.60;;
70761;SDS011;58360;0.000;0.000;2023-04-25T10:21:55;8.00;;;2.05;;
70761;SDS011;58360;0.000;0.000;2023-04-25T10:24:22;7.00;;;1.85;;
70761;SDS011;58360;0.000;0.000;2023-04-25T10:26:48;4.88;;;1.67;;
70761;SDS011;58360;0.000;0.000;2023-04-25T10:29:21;5.63;;;1.50;;
70761;SDS011;58360;0.000;0.000;2023-04-25T10:31:48;5.57;;;1.77;;
70761;SDS011;58360;0.000;0.000;2023-04-25T10:34:15;5.45;;;1.48;;
70761;SDS011;58360;0.000;0.000;2023-04-25T10:36:42;6.75;;;1.80;;
70761;SDS011;58360;0.000;0.000;2023-04-25T10:39:08;7.60;;;1.65;;
70761;SDS011;58360;0.000;0.000;2023-04-25T10:41:46;7.10;;;1.75;;
70761;SDS011;58360;0.000;0.000;2023-04-25T10:44:18;7.63;;;1.70;;
70761;SDS011;58360;0.000;0.000;2023-04-25T10:46:44;4.93;;;1.88;;
70761;SDS011;58360;0.000;0.000;2023-04-25T10:49:10;10.48;;;2.70;;
70761;SDS011;58360;0.000;0.000;2023-04-25T10:52:13;12.15;;;2.25;;
70761;SDS011;58360;0.000;0.000;2023-04-25T10:55:13;11.10;;;2.40;;
70761;SDS011;58360;0.000;0.000;2023-04-25T10:57:41;9.85;;;2.05;;
70761;SDS011;58360;0.000;0.000;2023-04-25T11:00:12;8.25;;;2.00;;
70761;SDS011;58360;0.000;0.000;2023-04-25T11:05:19;5.38;;;1.67;;
70761;SDS011;58360;0.000;0.000;2023-04-25T11:07:54;5.47;;;1.90;;
70761;SDS011;58360;0.000;0.000;2023-04-25T11:10:27;6.32;;;1.70;;
70761;SDS011;58360;0.000;0.000;2023-04-25T11:12:57;6.75;;;1.80;;
70761;SDS011;58360;0.000;0.000;2023-04-25T11:15:23;7.35;;;1.98;;
70761;SDS011;58360;0.000;0.000;2023-04-25T11:17:53;8.05;;;2.10;;
70761;SDS011;58360;0.000;0.000;2023-04-25T11:20:19;7.05;;;1.90;;
70761;SDS011;58360;0.000;0.000;2023-04-25T11:22:45;9.52;;;1.92;;
70761;SDS011;58360;0.000;0.000;2023-04-25T11:25:13;6.93;;;1.80;;
70761;SDS011;58360;0.000;0.000;2023-04-25T11:30:18;4.53;;;1.67;;
70761;SDS011;58360;0.000;0.000;2023-04-25T11:32:47;8.00;;;1.63;;
70761;SDS011;58360;0.000;0.000;2023-04-25T11:35:13;4.40;;;1.65;;
70761;SDS011;58360;0.000;0.000;2023-04-25T11:37:40;5.57;;;1.92;;
70761;SDS011;58360;0.000;0.000;2023-04-25T11:40:10;10.85;;;2.20;;
70761;SDS011;58360;0.000;0.000;2023-04-25T11:42:37;5.93;;;1.83;;
70761;SDS011;58360;0.000;0.000;2023-04-25T11:45:04;5.80;;;1.50;;
70761;SDS011;58360;0.000;0.000;2023-04-25T11:47:31;5.22;;;1.50;;
70761;SDS011;58360;0.000;0.000;2023-04-25T11:49:58;7.75;;;1.90;;
70761;SDS011;58360;0.000;0.000;2023-04-25T11:52:34;6.88;;;1.80;;
70761;SDS011;58360;0.000;0.000;2023-04-25T11:55:04;8.95;;;1.85;;
70761;SDS011;58360;0.000;0.000;2023-04-25T11:57:33;5.95;;;1.90;;
70761;SDS011;58360;0.000;0.000;2023-04-25T12:02:36;9.77;;;2.08;;
70761;SDS011;58360;0.000;0.000;2023-04-25T12:05:04;3.72;;;1.40;;
70761;SDS011;58360;0.000;0.000;2023-04-25T12:07:33;4.22;;;1.33;;
70761;SDS011;58360;0.000;0.000;2023-04-25T12:09:59;4.20;;;1.30;;
70761;SDS011;58360;0.000;0.000;2023-04-25T12:12:32;5.82;;;1.40;;
70761;SDS011;58360;0.000;0.000;2023-04-25T12:15:07;5.72;;;1.75;;
70761;SDS011;58360;0.000;0.000;2023-04-25T12:17:35;5.53;;;1.38;;
70761;SDS011;58360;0.000;0.000;2023-04-25T12:20:24;5.13;;;1.90;;
70761;SDS011;58360;0.000;0.000;2023-04-25T12:22:51;7.25;;;1.55;;
70761;SDS011;58360;0.000;0.000;2023-04-25T12:28:18;3.83;;;1.40;;
70761;SDS011;58360;0.000;0.000;2023-04-25T12:33:40;4.70;;;1.40;;
70761;SDS011;58360;0.000;0.000;2023-04-25T12:36:07;6.85;;;1.30;;
70761;SDS011;58360;0.000;0.000;2023-04-25T12:38:38;9.82;;;1.67;;
70761;SDS011;58360;0.000;0.000;2023-04-25T12:41:06;2.90;;;1.30;;
70761;SDS011;58360;0.000;0.000;2023-04-25T12:43:32;6.18;;;1.60;;
70761;SDS011;58360;0.000;0.000;2023-04-25T12:45:58;6.38;;;1.50;;
70761;SDS011;58360;0.000;0.000;2023-04-25T12:48:23;3.78;;;1.40;;
70761;SDS011;58360;0.000;0.000;2023-04-25T12:50:50;5.47;;;1.55;;
70761;SDS011;58360;0.000;0.000;2023-04-25T12:53:17;5.22;;;1.30;;
70761;SDS011;58360;0.000;0.000;2023-04-25T12:55:44;5.55;;;2.13;;
70761;SDS011;58360;0.000;0.000;2023-04-25T12:58:16;9.15;;;1.48;;
70761;SDS011;58360;0.000;0.000;2023-04-25T13:00:43;7.03;;;1.30;;
70761;SDS011;58360;0.000;0.000;2023-04-25T13:03:09;12.70;;;5.53;;
70761;SDS011;58360;0.000;0.000;2023-04-25T13:05:38;5.28;;;1.80;;
70761;SDS011;58360;0.000;0.000;2023-04-25T13:08:04;3.90;;;1.20;;
70761;SDS011;58360;0.000;0.000;2023-04-25T13:10:30;6.40;;;1.90;;
70761;SDS011;58360;0.000;0.000;2023-04-25T13:12:56;4.65;;;1.20;;
70761;SDS011;58360;0.000;0.000;2023-04-25T13:15:22;10.05;;;2.20;;
70761;SDS011;58360;0.000;0.000;2023-04-25T13:17:48;5.97;;;1.73;;
70761;SDS011;58360;0.000;0.000;2023-04-25T13:20:14;7.70;;;2.35;;
70761;SDS011;58360;0.000;0.000;2023-04-25T13:22:40;5.43;;;1.52;;
70761;SDS011;58360;0.000;0.000;2023-04-25T13:25:07;5.68;;;1.63;;
70761;SDS011;58360;0.000;0.000;2023-04-25T13:27:33;7.72;;;1.55;;
70761;SDS011;58360;0.000;0.000;2023-04-25T13:30:00;7.57;;;1.73;;
70761;SDS011;58360;0.000;0.000;2023-04-25T13:32:29;8.43;;;2.30;;
70761;SDS011;58360;0.000;0.000;2023-04-25T13:34:55;6.97;;;2.22;;
70761;SDS011;58360;0.000;0.000;2023-04-25T13:37:21;5.90;;;1.75;;
70761;SDS011;58360;0.000;0.000;2023-04-25T13:39:49;6.80;;;1.75;;
70761;SDS011;58360;0.000;0.000;2023-04-25T13:42:18;5.35;;;1.48;;
70761;SDS011;58360;0.000;0.000;2023-04-25T13:44:43;7.95;;;1.77;;
70761;SDS011;58360;0.000;0.000;2023-04-25T13:47:09;6.78;;;1.90;;
70761;SDS011;58360;0.000;0.000;2023-04-25T13:49:35;7.88;;;1.95;;
70761;SDS011;58360;0.000;0.000;2023-04-25T13:52:00;6.03;;;1.88;;
70761;SDS011;58360;0.000;0.000;2023-04-25T13:54:26;3.75;;;1.65;;
70761;SDS011;58360;0.000;0.000;2023-04-25T13:56:55;5.97;;;1.70;;
70761;SDS011;58360;0.000;0.000;2023-04-25T13:59:23;11.15;;;1.80;;
70761;SDS011;58360;0.000;0.000;2023-04-25T14:01:50;9.10;;;1.80;;
70761;SDS011;58360;0.000;0.000;2023-04-25T14:04:16;6.00;;;1.60;;
70761;SDS011;58360;0.000;0.000;2023-04-25T14:06:42;6.43;;;1.40;;
70761;SDS011;58360;0.000;0.000;2023-04-25T14:09:08;8.27;;;1.85;;
70761;SDS011;58360;0.000;0.000;2023-04-25T14:11:35;6.85;;;1.73;;
70761;SDS011;58360;0.000;0.000;2023-04-25T14:14:01;5.70;;;1.40;;
70761;SDS011;58360;0.000;0.000;2023-04-25T14:16:27;8.35;;;1.67;;
70761;SDS011;58360;0.000;0.000;2023-04-25T14:18:57;4.43;;;1.42;;
70761;SDS011;58360;0.000;0.000;2023-04-25T14:21:23;8.30;;;1.85;;
70761;SDS011;58360;0.000;0.000;2023-04-25T14:23:48;5.40;;;1.58;;
70761;SDS011;58360;0.000;0.000;2023-04-25T14:26:14;6.78;;;1.50;;
70761;SDS011;58360;0.000;0.000;2023-04-25T14:28:41;6.90;;;1.85;;
70761;SDS011;58360;0.000;0.000;2023-04-25T14:31:07;6.40;;;1.65;;
70761;SDS011;58360;0.000;0.000;2023-04-25T14:33:32;5.22;;;1.70;;
70761;SDS011;58360;0.000;0.000;2023-04-25T14:35:59;6.47;;;1.80;;
70761;SDS011;58360;0.000;0.000;2023-04-25T14:38:24;8.55;;;1.65;;
70761;SDS011;58360;0.000;0.000;2023-04-25T14:40:51;7.95;;;1.52;;
70761;SDS011;58360;0.000;0.000;2023-04-25T14:43:16;11.02;;;1.85;;
70761;SDS011;58360;0.000;0.000;2023-04-25T14:45:42;8.48;;;1.75;;
70761;SDS011;58360;0.000;0.000;2023-04-25T14:48:08;8.82;;;2.03;;
70761;SDS011;58360;0.000;0.000;2023-04-25T14:50:34;4.80;;;1.67;;
70761;SDS011;58360;0.000;0.000;2023-04-25T14:52:59;8.40;;;1.85;;
70761;SDS011;58360;0.000;0.000;2023-04-25T14:55:28;5.20;;;1.55;;
70761;SDS011;58360;0.000;0.000;2023-04-25T14:57:54;12.73;;;2.05;;
70761;SDS011;58360;0.000;0.000;2023-04-25T15:00:20;8.13;;;2.35;;
70761;SDS011;58360;0.000;0.000;2023-04-25T15:02:47;6.28;;;1.80;;
70761;SDS011;58360;0.000;0.000;2023-04-25T15:05:14;5.43;;;1.70;;